Etusivu
METAR-TAF:

METAR-TAF

Lentoasemat :

Klamath Falls Airport (Kingsley Field)

Klamath Falls, Oregon, Yhdysvallat

Leveyspiiri: 42-08-49N, Pituuspiiri: 121-43-27W, korkeus merenpinnasta: 1247 m

Tämänhetkinen sää

Tämä raportti tehtiin 1 tunti ja 8 minuuttia sitten, kello 00.53 UTC
Tuuli 4 kn luoteesta
Lämpötila 15°C
Kosteus 25%
Ilmanpaine 1025 hPa
Näkyvyys: 16.1 km
selkeää

METAR: KLMT 280053Z 32004KT 10SM CLR 15/M05 A3027 RMK AO2 SLP253 T01501050

Aika: 19:01 (02:01 UTC)

Sääennuste

Tämä raportti tehtiin 2 tuntia ja 41 minuuttia sitten, kello 23.20 UTC
Ennuste voimassa 28. päivästä klo 00 UTC - 28. päivään klo 24 UTC
Tuuli kn pohjoisesta
Näkyvyys: 10 km
selkeää

TAF: KLMT 272320Z 2800/2824 00000KT P6SM SKC

Säähavainnot ja -ennusteet yli 4000 lentoasemalta (METAR- ja TAF-raportit).

Käytössä olevat sääasemat on merkitty karttaan keltaisilla ja punaisilla pisteillä.

Aseta hiiri pisteen päälle nähdäksesi sääaseman nimen.

Klikkaa sitten nähdäksesi säähavainnot ja -ennusteet.

Kartan vaihtaminen: klikkaa mustalla rastilla varustettuja vihreitä pisteitä, niin voit zoomata sisään; viivalla varustettua vihreää pistettä, niin voit zoomata ulos tai vihreitä nuolia, niin pääset viereisille kartoille.


METAR-TAF: